This is the latest recevied weather packets stored in our database for station/object OSTR-WX. If no packets are shown the sender has not sent any weather packets the latest 10 day(s).
| Time | Temp. | Humidity | Pressure | Rain* | Wind** | Luminosity | Snow |
|---|---|---|---|---|---|---|---|
| 1777705652 | 13.33° C | 73% | 1026.5 hPa | - | - | - | - |
| 1777704703 | 12.78° C | 75% | 1026.6 hPa | - | - | - | - |
| 1777704696 | 12.78° C | 75% | 1026.6 hPa | - | - | - | - |
| 1777703737 | 11.11° C | 79% | 1026.8 hPa | - | - | - | - |
| 1777702780 | 9.44° C | 83% | 1027.1 hPa | - | - | - | - |
| 1777701823 | 8.89° C | 84% | 1027.2 hPa | - | - | - | - |
| 1777700873 | 7.22° C | 89% | 1027.4 hPa | - | - | - | - |
| 1777700867 | 7.22° C | 89% | 1027.4 hPa | - | - | - | - |
| 1777699910 | 6.11° C | 91% | 1027.6 hPa | - | - | - | - |
| 1777698952 | 4.44° C | 94% | 1027.7 hPa | - | - | - | - |
| 1777697996 | 3.33° C | 95% | 1027.9 hPa | - | - | - | - |
| 1777697038 | 2.78° C | 96% | 1027.9 hPa | - | - | - | - |
| 1777696081 | 2.22° C | 95% | 1027.8 hPa | - | - | - | - |
| 1777695124 | 2.22° C | 95% | 1027.8 hPa | - | - | - | - |
| 1777694175 | 2.22° C | 94% | 1027.8 hPa | - | - | - | - |
| 1777694168 | 2.22° C | 94% | 1027.8 hPa | - | - | - | - |
| 1777693216 | 2.22° C | 94% | 1027.7 hPa | - | - | - | - |
| 1777693210 | 2.22° C | 94% | 1027.7 hPa | - | - | - | - |
| 1777692253 | 2.22° C | 94% | 1027.7 hPa | - | - | - | - |
| 1777691303 | 2.22° C | 94% | 1027.6 hPa | - | - | - | - |
| 1777691296 | 2.22° C | 94% | 1027.6 hPa | - | - | - | - |
| 1777690345 | 2.22° C | 94% | 1027.6 hPa | - | - | - | - |
| 1777690339 | 2.22° C | 94% | 1027.6 hPa | - | - | - | - |
| 1777689383 | 2.22° C | 93% | 1027.6 hPa | - | - | - | - |
| 1777688434 | 2.78° C | 93% | 1027.6 hPa | - | - | - | - |
* Rain since midnight (hover to see other rain measurements)
** Current wind speed in m/s (hover to see current wind gust speed)